Somerset, Michigan
Current Conditions -  °F | °C
As of 6:55 PM on Friday 31 Oct 2014 (Local Time) from KJYM Reporting Station
Light Snow Light Snow  
Wind Chill: 23°   Ceiling: 1500
Heat Index: 34°   Visibility: 7mi
Dew Point: 33°   Wind: 22mph
Humidity: 93%   Direction: 350°N
Pressure: 30.05"   Gusts: 31mph
Location:  42.05°N, 84.38°W
Report Text: KJYM 312255Z AUTO 35019G27KT 7SM -SN BKN015 BKN021 OVC026 01/00 A3005 RMK AO2 T00130003
Loading
Personal Weather Stations






























Interactive Weather Map
Tropical Storm Tracking
New forecast layout! Learn more

10-Day Weather Forecast

Advertisements
Track Severe Weather on mobile